createdAt,value
2018-04-02T00:01:37.677Z,84.78
2018-04-02T00:04:05.923Z,84.38
2018-04-02T00:06:34.175Z,85.85
2018-04-02T00:09:02.433Z,84.41
2018-04-02T00:11:31.455Z,83.98
2018-04-02T00:13:59.709Z,83.24
2018-04-02T00:19:03.052Z,82.11
2018-04-02T00:21:31.301Z,81.33
2018-04-02T00:23:59.557Z,80.76
2018-04-02T00:26:27.793Z,80.64
2018-04-02T00:28:56.032Z,80.05
2018-04-02T00:31:24.282Z,80.10
2018-04-02T00:33:52.528Z,80.98
2018-04-02T00:36:20.773Z,80.37
2018-04-02T00:38:49.028Z,79.39
2018-04-02T00:41:17.282Z,79.91
2018-04-02T00:43:45.536Z,79.52
2018-04-02T00:46:14.541Z,79.17
2018-04-02T00:48:43.556Z,79.14
2018-04-02T00:51:11.804Z,78.82
2018-04-02T00:53:40.813Z,79.51
2018-04-02T00:56:09.829Z,79.81
2018-04-02T00:58:38.084Z,79.02
2018-04-02T01:01:07.096Z,78.79
2018-04-02T01:03:35.351Z,78.96
2018-04-02T01:06:04.361Z,79.06
2018-04-02T01:08:33.380Z,78.57
2018-04-02T01:11:01.616Z,79.01
2018-04-02T01:13:29.889Z,80.91
2018-04-02T01:15:58.163Z,82.12
2018-04-02T01:18:26.382Z,81.31
2018-04-02T01:20:55.398Z,80.82
2018-04-02T01:23:23.636Z,83.19
2018-04-02T01:25:51.877Z,83.29
2018-04-02T01:28:20.133Z,82.87
2018-04-02T01:30:48.372Z,83.14
2018-04-02T01:33:16.623Z,84.24
2018-04-02T01:35:44.885Z,84.74
2018-04-02T01:38:13.132Z,85.40
2018-04-02T01:40:42.150Z,86.56
2018-04-02T01:43:10.389Z,86.23
2018-04-02T01:45:38.624Z,87.09
2018-04-02T01:48:06.886Z,88.27
2018-04-02T01:50:35.134Z,89.61
2018-04-02T01:53:03.380Z,90.13
2018-04-02T01:55:31.636Z,90.51
2018-04-02T01:57:59.890Z,91.04
2018-04-02T02:00:28.892Z,91.24
2018-04-02T02:02:57.912Z,91.77
2018-04-02T02:05:26.174Z,91.97
2018-04-02T02:07:55.176Z,92.45
2018-04-02T02:10:23.444Z,92.92
2018-04-02T02:12:52.443Z,93.12
2018-04-02T02:15:21.463Z,92.95
2018-04-02T02:17:49.704Z,93.17
2018-04-02T02:20:17.960Z,93.36
2018-04-02T02:22:46.917Z,92.75
2018-04-02T02:25:15.172Z,91.90
2018-04-02T02:27:44.184Z,92.77
2018-04-02T02:30:12.439Z,93.11
2018-04-02T02:32:40.692Z,93.33
2018-04-02T02:35:08.980Z,93.35
2018-04-02T02:37:37.256Z,93.21
2018-04-02T02:40:06.226Z,91.90
2018-04-02T02:42:34.472Z,91.69
2018-04-02T02:45:02.752Z,92.54
2018-04-02T02:47:31.759Z,93.30
2018-04-02T02:50:00.014Z,93.36
2018-04-02T02:52:28.291Z,92.75
2018-04-02T02:54:56.527Z,93.53
2018-04-02T02:57:24.793Z,93.86
2018-04-02T02:59:53.048Z,93.71
2018-04-02T03:02:22.077Z,93.77
2018-04-02T03:04:50.354Z,92.86
2018-04-02T03:07:18.608Z,93.11
2018-04-02T03:09:47.612Z,92.89
2018-04-02T03:12:16.641Z,93.11
2018-04-02T03:14:44.893Z,92.95
2018-04-02T03:17:13.909Z,92.71
2018-04-02T03:19:42.167Z,93.60
2018-04-02T03:22:10.423Z,93.15
2018-04-02T03:24:38.675Z,93.26
2018-04-02T03:27:06.943Z,93.10
2018-04-02T03:29:35.197Z,92.89
2018-04-02T03:32:03.460Z,94.14
2018-04-02T03:34:32.491Z,94.29
2018-04-02T03:37:00.751Z,94.38
2018-04-02T03:39:29.772Z,94.56
2018-04-02T03:41:58.028Z,94.70
2018-04-02T03:44:26.295Z,94.42
2018-04-02T03:46:55.308Z,94.56
2018-04-02T03:49:23.580Z,94.56
2018-04-02T03:51:52.602Z,94.68
2018-04-02T03:54:20.865Z,94.24
2018-04-02T03:56:49.173Z,94.65
2018-04-02T03:59:17.447Z,94.83
2018-04-02T04:01:45.741Z,94.96
2018-04-02T04:04:14.002Z,94.85
2018-04-02T04:06:42.271Z,94.95
2018-04-02T04:09:10.537Z,94.72
2018-04-02T04:11:39.559Z,94.42
2018-04-02T04:14:07.824Z,93.52
2018-04-02T04:16:36.857Z,94.12
2018-04-02T04:19:06.004Z,94.20
2018-04-02T04:21:35.031Z,94.44
2018-04-02T04:24:03.293Z,94.40
2018-04-02T04:26:32.312Z,94.26
2018-04-02T04:29:00.580Z,94.79
2018-04-02T04:31:28.837Z,94.81
2018-04-02T04:33:57.082Z,94.77
2018-04-02T04:36:25.343Z,94.80
2018-04-02T04:38:53.598Z,94.86
2018-04-02T04:41:21.851Z,95.02
2018-04-02T04:43:50.121Z,95.23
2018-04-02T04:46:18.371Z,95.06
2018-04-02T04:48:46.628Z,94.82
2018-04-02T04:51:14.896Z,94.89
2018-04-02T04:53:43.924Z,95.02
2018-04-02T04:56:12.193Z,94.77
2018-04-02T04:58:40.452Z,94.33
2018-04-02T05:01:09.482Z,94.28
2018-04-02T05:03:37.749Z,94.39
2018-04-02T05:06:06.022Z,94.49
2018-04-02T05:08:34.276Z,94.27
2018-04-02T05:11:03.133Z,94.55
2018-04-02T05:13:31.493Z,94.60
2018-04-02T05:15:59.753Z,94.63
2018-04-02T05:18:28.763Z,94.45
2018-04-02T05:20:57.032Z,94.53
2018-04-02T05:23:26.204Z,94.45
2018-04-02T05:25:54.455Z,94.41
2018-04-02T05:28:22.705Z,94.25
2018-04-02T05:30:50.976Z,94.26
2018-04-02T05:33:20.000Z,93.75
2018-04-02T05:35:48.255Z,93.86
2018-04-02T05:38:16.520Z,93.97
2018-04-02T05:40:45.536Z,93.81
2018-04-02T05:43:14.756Z,93.77
2018-04-02T05:45:43.032Z,93.64
2018-04-02T05:48:11.285Z,93.47
2018-04-02T05:50:40.313Z,92.93
2018-04-02T05:53:08.575Z,93.17
2018-04-02T05:55:36.831Z,77.57
2018-04-02T05:58:05.104Z,53.17
2018-04-02T06:00:33.336Z,44.00
2018-04-02T06:03:01.595Z,35.75
2018-04-02T06:05:30.617Z,33.46
2018-04-02T06:07:58.866Z,31.21
2018-04-02T06:10:27.872Z,31.53
2018-04-02T06:12:56.137Z,30.82
2018-04-02T06:15:25.144Z,29.29
2018-04-02T06:17:53.404Z,28.81
2018-04-02T06:20:21.645Z,27.92
2018-04-02T06:22:49.912Z,25.12
2018-04-02T06:25:19.397Z,26.12
2018-04-02T06:27:48.502Z,26.47
2018-04-02T06:30:16.808Z,25.01
2018-04-02T06:32:45.053Z,24.77
2018-04-02T06:35:14.231Z,25.45
2018-04-02T06:37:42.468Z,26.23
2018-04-02T06:40:10.720Z,25.10
2018-04-02T06:42:38.980Z,23.92
2018-04-02T06:45:08.030Z,23.08
2018-04-02T06:47:36.248Z,24.72
2018-04-02T06:50:04.499Z,23.12
2018-04-02T06:52:32.766Z,23.14
2018-04-02T06:55:01.030Z,22.86
2018-04-02T06:57:29.292Z,22.62
2018-04-02T06:59:58.305Z,21.46
2018-04-02T07:02:26.556Z,19.09
2018-04-02T07:04:56.836Z,20.04
2018-04-02T07:07:25.096Z,19.88
2018-04-02T07:09:53.367Z,21.00
2018-04-02T07:12:21.634Z,19.10
2018-04-02T07:14:50.648Z,19.89
2018-04-02T07:17:18.970Z,19.87
2018-04-02T07:19:47.923Z,20.58
2018-04-02T07:22:16.174Z,19.63
2018-04-02T07:24:44.440Z,18.89
2018-04-02T07:27:12.699Z,17.17
2018-04-02T07:29:40.948Z,18.12
2018-04-02T07:32:09.200Z,18.00
2018-04-02T07:34:38.217Z,19.82
2018-04-02T07:37:06.485Z,18.74
2018-04-02T07:39:35.491Z,17.40
2018-04-02T07:42:03.764Z,16.17
2018-04-02T07:44:32.769Z,16.63
2018-04-02T07:47:01.025Z,17.63
2018-04-02T07:49:29.296Z,17.33
2018-04-02T07:51:57.782Z,16.30
2018-04-02T07:54:26.021Z,18.50
2018-04-02T07:56:54.274Z,19.33
2018-04-02T07:59:23.308Z,17.81
2018-04-02T08:01:51.564Z,17.34
2018-04-02T08:04:19.881Z,19.83
2018-04-02T08:06:48.848Z,21.07
2018-04-02T08:09:17.124Z,19.80
2018-04-02T08:11:45.355Z,19.41
2018-04-02T08:14:13.608Z,20.97
2018-04-02T08:16:41.934Z,20.53
2018-04-02T08:19:10.188Z,18.06
2018-04-02T08:21:38.456Z,17.46
2018-04-02T08:24:06.699Z,20.33
2018-04-02T08:26:34.956Z,18.75
2018-04-02T08:29:03.985Z,22.22
2018-04-02T08:31:32.236Z,20.43
2018-04-02T08:34:01.269Z,17.55
2018-04-02T08:36:29.531Z,19.04
2018-04-02T08:38:59.828Z,17.16
2018-04-02T08:41:29.067Z,17.12
2018-04-02T08:43:57.316Z,15.58
2018-04-02T08:46:25.575Z,14.24
2018-04-02T08:48:53.828Z,14.35
2018-04-02T08:51:22.104Z,14.04
2018-04-02T08:53:50.364Z,12.13
2018-04-02T08:56:19.391Z,16.80
2018-04-02T08:58:47.651Z,13.10
2018-04-02T09:01:15.908Z,14.21
2018-04-02T09:03:44.924Z,12.90
2018-04-02T09:06:13.221Z,11.96
2018-04-02T09:08:42.208Z,12.98
2018-04-02T09:11:10.467Z,11.74
2018-04-02T09:13:39.484Z,13.56
2018-04-02T09:16:07.765Z,14.44
2018-04-02T09:18:36.035Z,15.56
2018-04-02T09:21:05.060Z,13.89
2018-04-02T09:23:33.311Z,17.19
2018-04-02T09:26:01.579Z,16.26
2018-04-02T09:28:30.588Z,13.90
2018-04-02T09:30:58.856Z,15.67
2018-04-02T09:33:27.886Z,16.40
2018-04-02T09:35:56.144Z,13.61
2018-04-02T09:38:25.147Z,11.65
2018-04-02T09:40:53.411Z,16.23
2018-04-02T09:43:22.369Z,13.11
2018-04-02T09:45:50.630Z,14.75
2018-04-02T09:48:18.873Z,10.52
2018-04-02T09:50:47.899Z,11.65
2018-04-02T09:53:16.152Z,11.56
2018-04-02T09:55:45.180Z,10.53
2018-04-02T09:58:13.449Z,12.90
2018-04-02T10:00:41.707Z,12.57
2018-04-02T10:03:10.738Z,12.46
2018-04-02T10:05:39.035Z,10.53
2018-04-02T10:08:08.060Z,10.35
2018-04-02T10:10:36.269Z,10.57
2018-04-02T10:13:05.287Z,14.20
2018-04-02T10:15:33.882Z,12.57
2018-04-02T10:18:02.868Z,11.19
2018-04-02T10:20:31.124Z,11.33
2018-04-02T10:23:00.769Z,9.51
2018-04-02T10:25:30.194Z,12.26
2018-04-02T10:27:58.460Z,13.95
2018-04-02T10:33:23.891Z,12.14
2018-04-02T10:35:52.158Z,14.64
2018-04-02T10:38:20.417Z,16.62
2018-04-02T10:40:49.441Z,15.39
2018-04-02T10:43:17.822Z,14.75
2018-04-02T10:45:45.973Z,8.65
2018-04-02T10:48:14.982Z,9.98
2018-04-02T10:50:43.248Z,11.52
2018-04-02T10:53:12.272Z,14.62
2018-04-02T10:55:40.542Z,16.04
2018-04-02T10:58:08.793Z,15.77
2018-04-02T11:00:37.836Z,13.03
2018-04-02T11:03:06.091Z,8.06
2018-04-02T11:05:35.102Z,11.38
2018-04-02T11:08:03.368Z,15.65
2018-04-02T11:10:32.501Z,15.99
2018-04-02T11:13:00.764Z,13.84
2018-04-02T11:15:29.025Z,14.45
2018-04-02T11:17:58.088Z,15.58
2018-04-02T11:20:26.308Z,15.29
2018-04-02T11:22:54.560Z,15.08
2018-04-02T11:25:22.816Z,8.72
2018-04-02T11:27:51.078Z,7.30
2018-04-02T11:30:19.323Z,6.13
2018-04-02T11:32:48.350Z,4.30
2018-04-02T11:35:16.610Z,7.10
2018-04-02T11:37:44.884Z,14.28
2018-04-02T11:40:13.913Z,9.99
2018-04-02T11:42:42.161Z,6.87
2018-04-02T11:45:10.416Z,5.73
2018-04-02T11:47:38.669Z,6.34
2018-04-02T11:50:06.919Z,7.53
2018-04-02T11:52:35.185Z,14.80
2018-04-02T11:55:07.941Z,16.12
2018-04-02T11:57:36.241Z,10.86
2018-04-02T12:00:05.257Z,9.10
2018-04-02T12:02:33.530Z,12.69
2018-04-02T12:05:01.793Z,13.63
2018-04-02T12:07:30.828Z,13.97
2018-04-02T12:09:59.083Z,10.67
2018-04-02T12:12:28.113Z,15.33
2018-04-02T12:14:56.572Z,8.00
2018-04-02T12:17:24.833Z,9.78
2018-04-02T12:19:53.856Z,11.11
2018-04-02T12:22:22.121Z,15.77
2018-04-02T12:24:51.138Z,5.88
2018-04-02T12:27:19.393Z,3.47
2018-04-02T12:29:48.408Z,10.49
2018-04-02T12:32:16.709Z,9.53
2018-04-02T12:34:44.959Z,14.12
2018-04-02T12:37:13.976Z,13.96
2018-04-02T12:39:42.229Z,5.84
2018-04-02T12:42:11.257Z,3.59
2018-04-02T12:44:39.515Z,2.90
2018-04-02T12:47:09.786Z,2.99
2018-04-02T12:49:38.040Z,5.62
2018-04-02T12:52:06.305Z,10.98
2018-04-02T12:54:34.567Z,11.31
2018-04-02T12:57:03.483Z,6.48
2018-04-02T12:59:31.737Z,9.02
2018-04-02T13:01:59.990Z,9.23
2018-04-02T13:04:28.269Z,8.66
2018-04-02T13:06:56.492Z,11.77
2018-04-02T13:09:25.513Z,8.55
2018-04-02T13:11:53.761Z,7.11
2018-04-02T13:14:22.014Z,9.72
2018-04-02T13:16:50.260Z,8.14
2018-04-02T13:19:18.541Z,9.59
2018-04-02T13:21:46.774Z,10.71
2018-04-02T13:24:15.050Z,13.48
2018-04-02T13:26:43.304Z,12.89
2018-04-02T13:29:11.567Z,12.56
2018-04-02T13:31:39.815Z,14.82
2018-04-02T13:34:08.839Z,15.75
2018-04-02T13:36:37.088Z,10.78
2018-04-02T13:39:06.936Z,10.31
2018-04-02T13:41:35.193Z,14.28
2018-04-02T13:44:04.216Z,13.02
2018-04-02T13:46:32.473Z,11.61
2018-04-02T13:49:00.729Z,9.13
2018-04-02T13:51:28.972Z,9.60
2018-04-02T13:53:57.237Z,11.90
2018-04-02T13:56:25.484Z,13.97
2018-04-02T13:58:54.768Z,11.17
2018-04-02T14:01:23.017Z,9.89
2018-04-02T14:03:51.266Z,15.04
2018-04-02T14:06:19.528Z,15.14
2018-04-02T14:08:48.549Z,15.85
2018-04-02T14:11:16.815Z,13.74
2018-04-02T14:13:45.835Z,15.84
2018-04-02T14:16:14.093Z,12.04
2018-04-02T14:18:42.344Z,16.00
2018-04-02T14:21:10.619Z,11.22
2018-04-02T14:23:38.861Z,11.15
2018-04-02T14:26:07.125Z,15.66
2018-04-02T14:28:35.378Z,15.22
2018-04-02T14:31:05.651Z,16.44
2018-04-02T14:33:33.900Z,15.45
2018-04-02T14:36:02.170Z,16.26
2018-04-02T14:38:31.192Z,16.77
2018-04-02T14:40:59.452Z,17.10
2018-04-02T14:43:27.704Z,20.10
2018-04-02T14:45:55.968Z,19.32
2018-04-02T14:48:24.221Z,15.84
2018-04-02T14:50:52.478Z,17.49
2018-04-02T14:53:21.495Z,16.89
2018-04-02T14:55:49.753Z,15.22
2018-04-02T14:58:18.774Z,14.82
2018-04-02T15:00:47.025Z,14.42
2018-04-02T15:03:16.046Z,14.28
2018-04-02T15:05:44.293Z,15.23
2018-04-02T15:08:13.321Z,14.40
2018-04-02T15:10:41.574Z,14.94
2018-04-02T15:13:10.604Z,15.41
2018-04-02T15:15:38.852Z,16.08
2018-04-02T15:18:07.881Z,16.91
2018-04-02T15:20:36.141Z,17.00
2018-04-02T15:23:05.160Z,17.34
2018-04-02T15:25:33.421Z,18.90
2018-04-02T15:28:02.452Z,18.78
2018-04-02T15:30:30.704Z,18.56
2018-04-02T15:32:58.966Z,21.20
2018-04-02T15:35:27.996Z,21.27
2018-04-02T15:37:56.269Z,22.20
2018-04-02T15:40:24.526Z,22.87
2018-04-02T15:42:53.562Z,21.62
2018-04-02T15:45:21.812Z,20.10
2018-04-02T15:47:50.077Z,20.89
2018-04-02T15:50:18.332Z,20.75
2018-04-02T15:52:46.608Z,21.39
2018-04-02T15:55:14.881Z,21.55
2018-04-02T15:57:43.131Z,25.04
2018-04-02T16:00:11.420Z,23.35
2018-04-02T16:02:39.676Z,25.72
2018-04-02T16:05:08.710Z,28.14
2018-04-02T16:07:36.960Z,27.54
2018-04-02T16:10:05.981Z,28.74
2018-04-02T16:12:34.228Z,29.34
2018-04-02T16:15:03.263Z,30.58
2018-04-02T16:17:31.514Z,30.99
2018-04-02T16:19:59.780Z,30.78
2018-04-02T16:22:28.801Z,30.89
2018-04-02T16:24:57.068Z,31.38
2018-04-02T16:27:26.208Z,31.89
2018-04-02T16:29:54.469Z,32.51
2018-04-02T16:32:22.717Z,32.54
2018-04-02T16:34:51.733Z,33.35
2018-04-02T16:37:20.001Z,33.35
2018-04-02T16:39:49.033Z,33.78
2018-04-02T16:42:17.285Z,33.77
2018-04-02T16:44:46.320Z,34.18
2018-04-02T16:47:14.577Z,34.74
2018-04-02T16:49:42.834Z,34.14
2018-04-02T16:52:11.851Z,35.25
2018-04-02T16:54:40.111Z,35.45
2018-04-02T16:57:09.142Z,35.29
2018-04-02T16:59:37.405Z,35.01
2018-04-02T17:02:05.673Z,35.55
2018-04-02T17:04:34.696Z,35.88
2018-04-02T17:07:02.966Z,35.95
2018-04-02T17:09:32.064Z,36.25
2018-04-02T17:12:00.331Z,36.83
2018-04-02T17:14:29.354Z,37.19
2018-04-02T17:16:57.616Z,37.44
2018-04-02T17:19:26.630Z,37.93
2018-04-02T17:21:54.889Z,37.81
2018-04-02T17:27:06.397Z,38.94
2018-04-02T17:29:34.652Z,39.49
2018-04-02T17:32:02.926Z,39.44
2018-04-02T17:34:31.180Z,39.35
2018-04-02T17:36:59.440Z,39.64
2018-04-02T17:39:27.708Z,39.93
2018-04-02T17:41:56.728Z,40.06
2018-04-02T17:44:24.989Z,40.36
2018-04-02T17:46:53.255Z,40.27
2018-04-02T17:49:22.266Z,40.16
2018-04-02T17:51:50.534Z,40.32
2018-04-02T17:54:19.569Z,40.47
2018-04-02T17:56:47.826Z,40.26
2018-04-02T17:59:16.085Z,40.44
2018-04-02T18:01:44.341Z,39.68
2018-04-02T18:04:12.609Z,39.71
2018-04-02T18:06:40.856Z,40.66
2018-04-02T18:09:09.118Z,41.97
2018-04-02T18:11:37.368Z,41.00
2018-04-02T18:14:05.644Z,42.28
2018-04-02T18:16:34.459Z,45.97
2018-04-02T18:19:03.484Z,44.50
2018-04-02T18:21:31.758Z,41.80
2018-04-02T18:24:00.013Z,41.72
2018-04-02T18:26:29.048Z,43.94
2018-04-02T18:28:57.310Z,47.09
2018-04-02T18:31:25.577Z,48.66
2018-04-02T18:33:54.598Z,48.63
2018-04-02T18:36:22.863Z,49.84
2018-04-02T18:38:51.912Z,50.98
2018-04-02T18:41:20.168Z,53.06
2018-04-02T18:43:48.439Z,55.74
2018-04-02T18:46:16.701Z,55.01
2018-04-02T18:48:46.959Z,57.28
2018-04-02T18:51:15.214Z,57.19
2018-04-02T18:53:44.217Z,56.65
2018-04-02T18:56:12.481Z,56.49
2018-04-02T18:58:41.498Z,55.06
2018-04-02T19:01:09.750Z,56.68
2018-04-02T19:03:38.756Z,56.78
2018-04-02T19:06:07.780Z,58.12
2018-04-02T19:08:36.026Z,58.94
2018-04-02T19:11:05.035Z,59.22
2018-04-02T19:13:34.052Z,57.07
2018-04-02T19:16:02.315Z,55.34
2018-04-02T19:18:30.569Z,56.92
2018-04-02T19:20:59.665Z,57.98
2018-04-02T19:23:27.872Z,60.28
2018-04-02T19:25:56.896Z,59.51
2018-04-02T19:28:25.141Z,57.33
2018-04-02T19:30:54.149Z,57.07
2018-04-02T19:33:22.401Z,57.31
2018-04-02T19:35:50.673Z,59.70
2018-04-02T19:38:18.920Z,61.55
2018-04-02T19:40:47.179Z,60.92
2018-04-02T19:43:15.438Z,60.99
2018-04-02T19:45:44.445Z,63.72
2018-04-02T19:48:13.462Z,64.28
2018-04-02T19:50:41.704Z,63.99
2018-04-02T19:53:09.965Z,65.58
2018-04-02T19:55:38.231Z,66.06
2018-04-02T19:58:06.485Z,65.98
2018-04-02T20:00:34.740Z,64.87
2018-04-02T20:03:03.758Z,63.90
2018-04-02T20:05:32.021Z,63.25
2018-04-02T20:08:01.039Z,64.99
2018-04-02T20:10:29.276Z,64.52
2018-04-02T20:12:57.531Z,61.13
2018-04-02T20:15:26.614Z,59.39
2018-04-02T20:17:54.862Z,61.38
2018-04-02T20:20:23.139Z,63.38
2018-04-02T20:22:52.156Z,65.85
2018-04-02T20:25:20.406Z,64.75
2018-04-02T20:27:49.692Z,64.66
2018-04-02T20:30:17.936Z,62.54
2018-04-02T20:32:46.184Z,62.40
2018-04-02T20:35:15.681Z,60.95
2018-04-02T20:37:44.697Z,62.05
2018-04-02T20:40:12.966Z,62.35
2018-04-02T20:42:41.978Z,61.46
2018-04-02T20:45:10.241Z,62.20
2018-04-02T20:47:39.253Z,63.29
2018-04-02T20:50:07.511Z,64.47
2018-04-02T20:52:36.517Z,64.06
2018-04-02T20:55:05.553Z,64.66
2018-04-02T20:57:33.797Z,63.25
2018-04-02T21:00:02.825Z,60.88
2018-04-02T21:02:31.085Z,61.37
2018-04-02T21:04:59.324Z,62.46
2018-04-02T21:07:29.375Z,62.74
2018-04-02T21:09:58.399Z,61.55
2018-04-02T21:12:26.648Z,60.42
2018-04-02T21:14:55.697Z,60.17
2018-04-02T21:17:23.952Z,61.79
2018-04-02T21:19:52.205Z,64.05
2018-04-02T21:22:21.304Z,64.12
2018-04-02T21:24:50.464Z,65.11
2018-04-02T21:27:18.706Z,67.86
2018-04-02T21:29:46.956Z,65.58
2018-04-02T21:32:15.973Z,65.56
2018-04-02T21:34:44.221Z,67.29
2018-04-02T21:37:12.476Z,68.33
2018-04-02T21:39:40.725Z,68.40
2018-04-02T21:42:08.983Z,68.83
2018-04-02T21:44:37.980Z,69.71
2018-04-02T21:47:07.112Z,68.76
2018-04-02T21:49:35.352Z,69.77
2018-04-02T21:52:04.362Z,70.33
2018-04-02T21:54:33.380Z,69.35
2018-04-02T21:57:01.623Z,68.90
2018-04-02T21:59:30.356Z,70.13
2018-04-02T22:02:00.470Z,70.17
2018-04-02T22:04:28.715Z,70.49
2018-04-02T22:07:05.045Z,71.95
2018-04-02T22:09:33.289Z,72.41
2018-04-02T22:12:01.558Z,72.96
2018-04-02T22:14:30.576Z,73.32
2018-04-02T22:16:58.835Z,73.35
2018-04-02T22:19:27.856Z,73.66
2018-04-02T22:21:56.116Z,73.91
2018-04-02T22:24:24.368Z,73.38
2018-04-02T22:26:52.614Z,73.14
2018-04-02T22:29:20.860Z,71.62
2018-04-02T22:31:49.128Z,72.83
2018-04-02T22:34:18.128Z,72.39
2018-04-02T22:36:47.753Z,72.16
2018-04-02T22:39:16.015Z,73.40
2018-04-02T22:41:45.044Z,73.96
2018-04-02T22:44:13.296Z,73.49
2018-04-02T22:46:42.316Z,73.60
2018-04-02T22:49:10.558Z,74.31
2018-04-02T22:51:38.809Z,74.35
2018-04-02T22:54:07.068Z,75.56
2018-04-02T22:56:35.937Z,75.14
2018-04-02T22:59:04.336Z,75.87
2018-04-02T23:01:32.582Z,75.32
2018-04-02T23:04:01.605Z,74.99
2018-04-02T23:06:29.844Z,74.54
2018-04-02T23:08:58.102Z,75.69
2018-04-02T23:11:26.347Z,75.15
2018-04-02T23:13:54.606Z,75.21
2018-04-02T23:16:23.609Z,75.29
2018-04-02T23:18:52.631Z,73.47
2018-04-02T23:21:20.877Z,74.17
2018-04-02T23:23:49.897Z,73.81
2018-04-02T23:26:18.141Z,75.64
2018-04-02T23:28:46.397Z,73.87
2018-04-02T23:31:14.628Z,75.81
2018-04-02T23:33:42.892Z,75.35
2018-04-02T23:36:11.921Z,74.03
2018-04-02T23:38:40.170Z,74.15
2018-04-02T23:41:10.426Z,73.80
2018-04-02T23:43:38.691Z,73.89
2018-04-02T23:46:06.951Z,73.00
2018-04-02T23:48:35.204Z,70.11
2018-04-02T23:51:03.456Z,72.35
2018-04-02T23:53:31.716Z,73.21
2018-04-02T23:55:59.971Z,72.05
2018-04-02T23:58:28.232Z,70.53
